Time;durP1;ratioP1;P1;durP2;ratioP2;P2;SDS_P1;SDS_P2;PMS_P1;PMS_P2;Temp;Humidity;BMP_temperature;BMP_pressure;BME280_temperature;BME280_humidity;BME280_pressure;Samples;Min_cycle;Max_cycle;Signal;HPM_P1;HPM_P2
2022/04/07 00:00:10;;;;;;;;;;;;;;;15.06;66.99;98742.59;1046593;28;645;-58
2022/04/07 00:01:00;;;;;;;;;;;;;;;15.05;66.76;98735.56;1046644;28;696;-58
2022/04/07 00:01:51;;;;;;;;;;;;;;;15.05;66.49;98734.75;1046573;28;684;-59
2022/04/07 00:02:41;;;;;;;;;;;;;;;15.06;66.96;98731.84;1046382;28;1200;-58
2022/04/07 00:03:32;;;;;;;;;;;;;;;15.06;66.59;98734.53;1045445;28;1122;-58
2022/04/07 00:04:22;;;;;;;;;;;;;;;15.09;66.60;98736.03;1045050;28;1098;-58
2022/04/07 00:05:12;;;;;;;;;;;;;;;15.09;66.67;98720.78;1043264;28;1127;-58
2022/04/07 00:06:09;;;;;;;;;;;;;;;15.09;67.03;98719.94;1042155;28;1073;-58
2022/04/07 00:07:00;;;;;;;;;;;;;;;15.09;66.67;98731.50;1045393;28;1082;-58
2022/04/07 00:07:50;;;;;;;;;;;;;;;15.09;66.90;98725.31;1045884;28;1190;-58
2022/04/07 00:08:40;;;;;;;;;;;;;;;15.10;66.46;98727.81;1044605;28;1141;-57
2022/04/07 00:09:31;;;;;;;;;;;;;;;15.09;66.17;98725.31;1043276;28;1079;-58
2022/04/07 00:10:21;;;;;;;;;;;;;;;15.10;66.55;98725.13;1041368;28;642;-57
2022/04/07 00:11:12;;;;;;;;;;;;;;;15.10;66.71;98718.94;1041321;28;672;-58
2022/04/07 00:12:03;;;;;;;;;;;;;;;15.09;66.16;98731.50;1040929;28;763;-58
2022/04/07 00:12:53;;;;;;;;;;;;;;;15.10;66.21;98729.66;1041358;28;653;-58
2022/04/07 00:13:43;;;;;;;;;;;;;;;15.07;66.73;98733.53;1041260;28;685;-59
2022/04/07 00:14:34;;;;;;;;;;;;;;;15.07;66.77;98728.16;1041272;28;614;-59
2022/04/07 00:15:24;;;;;;;;;;;;;;;15.07;66.74;98724.66;1041445;28;645;-59
2022/04/07 00:16:15;;;;;;;;;;;;;;;15.06;66.45;98725.66;1041299;28;693;-58
2022/04/07 00:17:05;;;;;;;;;;;;;;;15.09;66.28;98719.94;1042513;28;1684;-59
2022/04/07 00:17:56;;;;;;;;;;;;;;;15.08;66.41;98718.28;1046583;28;677;-58
2022/04/07 00:18:47;;;;;;;;;;;;;;;15.08;66.60;98711.06;1045395;28;681;-59
2022/04/07 00:19:38;;;;;;;;;;;;;;;15.07;66.28;98722.81;1046654;28;638;-58
2022/04/07 00:20:29;;;;;;;;;;;;;;;15.07;66.40;98721.97;1046058;28;685;-59
2022/04/07 00:21:35;;;;;;;;;;;;;;;15.06;66.42;98720.28;1044712;28;1560;-59
2022/04/07 00:22:26;;;;;;;;;;;;;;;15.03;66.06;98709.94;1044730;28;1971;-59
2022/04/07 00:23:16;;;;;;;;;;;;;;;15.04;66.68;98708.94;1045909;28;720;-59
2022/04/07 00:24:06;;;;;;;;;;;;;;;15.04;66.28;98706.25;1045420;28;708;-58
2022/04/07 00:24:57;;;;;;;;;;;;;;;15.03;66.49;98710.78;1045860;28;638;-57
2022/04/07 00:25:47;;;;;;;;;;;;;;;15.01;66.47;98701.25;1046019;28;673;-59
2022/04/07 00:26:38;;;;;;;;;;;;;;;15.01;66.31;98695.88;1045966;28;674;-58
2022/04/07 00:27:28;;;;;;;;;;;;;;;15.02;66.36;98687.66;1045391;28;650;-59
2022/04/07 00:28:19;;;;;;;;;;;;;;;15.01;66.30;98694.03;1049140;28;867;-59
2022/04/07 00:29:09;;;;;;;;;;;;;;;15.01;66.13;98698.56;1049669;28;649;-59
2022/04/07 00:30:00;;;;;;;;;;;;;;;15.02;66.11;98698.38;1044827;28;725;-59
2022/04/07 00:30:51;;;;;;;;;;;;;;;15.01;66.42;98690.50;1046049;28;676;-58
2022/04/07 00:31:42;;;;;;;;;;;;;;;14.99;66.32;98689.84;1045462;28;693;-57
2022/04/07 00:32:32;;;;;;;;;;;;;;;14.99;66.46;98701.44;1045438;28;624;-58
2022/04/07 00:33:22;;;;;;;;;;;;;;;14.99;66.27;98692.53;1045873;28;657;-58
2022/04/07 00:34:13;;;;;;;;;;;;;;;15.00;66.43;98692.38;1049915;28;669;-58
2022/04/07 00:35:03;;;;;;;;;;;;;;;14.99;66.32;98685.34;1049812;28;641;-59
2022/04/07 00:35:54;;;;;;;;;;;;;;;15.00;66.35;98684.31;1044289;28;638;-59
2022/04/07 00:36:44;;;;;;;;;;;;;;;15.01;66.54;98674.44;1044561;28;625;-59
2022/04/07 00:37:35;;;;;;;;;;;;;;;15.01;66.08;98679.78;1045750;28;797;-59
2022/04/07 00:38:25;;;;;;;;;;;;;;;15.01;66.31;98669.06;1045956;28;649;-59
2022/04/07 00:39:16;;;;;;;;;;;;;;;15.00;66.56;98683.47;1045913;28;1057;-60
2022/04/07 00:40:06;;;;;;;;;;;;;;;15.01;66.07;98674.44;1045917;28;661;-60
2022/04/07 00:40:56;;;;;;;;;;;;;;;15.01;65.91;98674.44;1045250;28;630;-60
2022/04/07 00:41:47;;;;;;;;;;;;;;;15.00;66.50;98670.06;1045405;28;696;-59
2022/04/07 00:42:37;;;;;;;;;;;;;;;15.01;65.94;98677.09;1045968;28;720;-60
2022/04/07 00:43:28;;;;;;;;;;;;;;;15.00;66.44;98675.44;1045892;28;641;-60
2022/04/07 00:44:21;;;;;;;;;;;;;;;14.99;66.04;98679.97;1044671;28;693;-59
2022/04/07 00:45:12;;;;;;;;;;;;;;;14.98;66.08;98656.00;1045436;28;677;-60
2022/04/07 00:46:02;;;;;;;;;;;;;;;14.97;66.30;98673.13;1044560;28;709;-59
2022/04/07 00:46:53;;;;;;;;;;;;;;;14.96;66.22;98663.41;1045899;28;674;-58
2022/04/07 00:47:43;;;;;;;;;;;;;;;14.94;66.29;98664.41;1041189;28;772;-58
2022/04/07 00:48:35;;;;;;;;;;;;;;;14.96;66.30;98664.22;1041136;28;682;-59
2022/04/07 00:49:26;;;;;;;;;;;;;;;14.94;65.94;98659.03;1041743;28;697;-58
2022/04/07 00:50:16;;;;;;;;;;;;;;;14.96;66.51;98660.72;1043520;28;1640;-59
2022/04/07 00:51:06;;;;;;;;;;;;;;;14.96;66.24;98661.56;1045330;28;673;-59
2022/04/07 00:51:57;;;;;;;;;;;;;;;14.97;65.97;98665.06;1045402;28;725;-59
2022/04/07 00:52:47;;;;;;;;;;;;;;;14.96;65.81;98658.88;1045321;28;626;-59
2022/04/07 00:53:38;;;;;;;;;;;;;;;14.94;66.34;98653.69;1045311;28;820;-59
2022/04/07 00:54:28;;;;;;;;;;;;;;;14.94;66.14;98659.03;1044728;28;716;-58
2022/04/07 00:55:18;;;;;;;;;;;;;;;14.94;65.93;98653.69;1045260;28;677;-58
2022/04/07 00:56:09;;;;;;;;;;;;;;;14.91;65.96;98651.34;1044580;28;683;-58
2022/04/07 00:56:59;;;;;;;;;;;;;;;14.89;66.20;98655.22;1045591;28;704;-59
2022/04/07 00:57:50;;;;;;;;;;;;;;;14.90;66.57;98657.72;1045179;28;638;-58
2022/04/07 00:58:41;;;;;;;;;;;;;;;14.89;66.13;98645.34;1045217;28;636;-59
2022/04/07 00:59:31;;;;;;;;;;;;;;;14.90;66.27;98641.63;1045174;28;670;-60
2022/04/07 01:00:22;;;;;;;;;;;;;;;14.89;66.50;98644.50;1045169;28;654;-60
2022/04/07 01:01:13;;;;;;;;;;;;;;;14.87;66.23;98642.00;1044772;28;669;-59
2022/04/07 01:02:03;;;;;;;;;;;;;;;14.88;66.01;98629.41;1045309;28;673;-59
2022/04/07 01:02:53;;;;;;;;;;;;;;;14.87;65.99;98636.63;1045142;28;615;-59
2022/04/07 01:03:44;;;;;;;;;;;;;;;14.87;66.38;98641.16;1045037;28;1248;-59
2022/04/07 01:04:34;;;;;;;;;;;;;;;14.89;65.94;98648.00;1045237;28;661;-59
2022/04/07 01:05:25;;;;;;;;;;;;;;;14.89;66.20;98647.19;1044585;28;630;-59
2022/04/07 01:06:15;;;;;;;;;;;;;;;14.88;66.19;98629.41;1045339;28;685;-59
2022/04/07 01:07:05;;;;;;;;;;;;;;;14.88;66.30;98632.94;1045252;28;686;-60
2022/04/07 01:07:56;;;;;;;;;;;;;;;14.87;66.40;98642.00;1044610;28;690;-60
2022/04/07 01:08:46;;;;;;;;;;;;;;;14.88;66.28;98632.09;1045109;28;665;-59
2022/04/07 01:09:37;;;;;;;;;;;;;;;14.89;65.80;98633.78;1045179;28;630;-60
2022/04/07 01:10:28;;;;;;;;;;;;;;;14.88;66.07;98627.56;1045313;28;863;-60
2022/04/07 01:11:19;;;;;;;;;;;;;;;14.90;65.72;98624.72;1044780;28;1195;-59
2022/04/07 01:12:10;;;;;;;;;;;;;;;14.89;66.04;98621.19;1045244;28;902;-60
2022/04/07 01:13:00;;;;;;;;;;;;;;;14.89;65.80;98629.25;1045246;28;723;-61
2022/04/07 01:13:51;;;;;;;;;;;;;;;14.88;65.90;98616.84;1045123;28;689;-60
2022/04/07 01:14:41;;;;;;;;;;;;;;;14.87;65.83;98620.53;1045194;28;737;-60
2022/04/07 01:15:31;;;;;;;;;;;;;;;14.87;65.76;98625.91;1045072;28;705;-60
2022/04/07 01:16:22;;;;;;;;;;;;;;;14.86;66.21;98605.50;1044600;28;642;-59
2022/04/07 01:17:12;;;;;;;;;;;;;;;14.89;66.27;98617.69;1044432;28;1711;-59
2022/04/07 01:18:03;;;;;;;;;;;;;;;14.87;65.99;98603.63;1045457;28;665;-59
2022/04/07 01:18:53;;;;;;;;;;;;;;;14.86;66.17;98608.19;1044958;28;856;-59
2022/04/07 01:19:44;;;;;;;;;;;;;;;14.86;66.06;98607.34;1046191;28;696;-59
2022/04/07 01:20:35;;;;;;;;;;;;;;;14.87;66.27;98600.94;1045123;28;634;-59
2022/04/07 01:21:25;;;;;;;;;;;;;;;14.85;65.85;98598.47;1046241;28;673;-59
2022/04/07 01:22:15;;;;;;;;;;;;;;;14.85;65.93;98609.19;1045436;28;1915;-59
2022/04/07 01:23:07;;;;;;;;;;;;;;;14.87;65.80;98600.94;1046029;28;688;-59
2022/04/07 01:23:58;;;;;;;;;;;;;;;14.86;65.76;98608.19;1045221;28;606;-59
2022/04/07 01:24:48;;;;;;;;;;;;;;;14.87;66.22;98583.00;1046329;28;646;-60
2022/04/07 01:25:39;;;;;;;;;;;;;;;14.85;66.07;98595.78;1044897;28;1647;-60
2022/04/07 01:26:29;;;;;;;;;;;;;;;14.84;66.10;98596.78;1046293;28;736;-58
2022/04/07 01:27:19;;;;;;;;;;;;;;;14.84;65.70;98599.47;1046412;28;741;-59
2022/04/07 01:28:10;;;;;;;;;;;;;;;14.84;65.70;98587.91;1046328;28;697;-59
2022/04/07 01:29:00;;;;;;;;;;;;;;;14.85;66.25;98592.28;1046344;28;642;-59
2022/04/07 01:29:56;;;;;;;;;;;;;;;14.84;66.07;98579.88;1045031;28;627;-59
2022/04/07 01:30:46;;;;;;;;;;;;;;;14.83;65.50;98579.03;1045636;28;696;-59
2022/04/07 01:31:37;;;;;;;;;;;;;;;14.83;65.73;98579.03;1045047;28;690;-59
2022/04/07 01:32:27;;;;;;;;;;;;;;;14.80;65.78;98566.00;1046229;28;637;-58
2022/04/07 01:33:18;;;;;;;;;;;;;;;14.80;65.94;98579.41;1046341;28;641;-58
2022/04/07 01:34:09;;;;;;;;;;;;;;;14.80;66.25;98576.72;1045086;28;642;-59
2022/04/07 01:34:59;;;;;;;;;;;;;;;14.82;65.80;98568.50;1046244;28;728;-58
2022/04/07 01:35:50;;;;;;;;;;;;;;;14.81;66.02;98566.81;1045045;28;681;-58
2022/04/07 01:36:40;;;;;;;;;;;;;;;14.80;65.98;98560.63;1046188;28;705;-59
2022/04/07 01:37:31;;;;;;;;;;;;;;;14.80;65.97;98565.16;1045099;28;745;-59
2022/04/07 01:38:21;;;;;;;;;;;;;;;14.79;65.42;98553.59;1046244;28;657;-58
2022/04/07 01:39:13;;;;;;;;;;;;;;;14.80;65.94;98565.16;1046315;28;613;-59
2022/04/07 01:40:04;;;;;;;;;;;;;;;14.78;65.46;98562.66;1045230;28;712;-59
2022/04/07 01:40:54;;;;;;;;;;;;;;;14.78;65.83;98553.78;1045736;28;779;-59
2022/04/07 01:41:45;;;;;;;;;;;;;;;14.77;65.71;98550.25;1045039;28;697;-59
2022/04/07 01:42:35;;;;;;;;;;;;;;;14.77;65.79;98539.53;1046099;28;1948;-59
2022/04/07 01:43:26;;;;;;;;;;;;;;;14.76;65.87;98543.22;1046224;28;703;-59
2022/04/07 01:44:16;;;;;;;;;;;;;;;14.77;65.60;98542.22;1046155;28;662;-59
2022/04/07 01:45:06;;;;;;;;;;;;;;;14.78;65.95;98541.22;1046308;28;855;-58
2022/04/07 01:45:57;;;;;;;;;;;;;;;14.76;65.94;98543.22;1046234;28;645;-59
2022/04/07 01:46:47;;;;;;;;;;;;;;;14.76;65.51;98545.09;1046187;28;677;-59
2022/04/07 01:47:38;;;;;;;;;;;;;;;14.76;65.90;98531.69;1045085;28;693;-59
2022/04/07 01:48:28;;;;;;;;;;;;;;;14.75;65.87;98525.47;1044784;28;700;-59
2022/04/07 01:49:18;;;;;;;;;;;;;;;14.75;65.45;98525.47;1048984;28;633;-59
2022/04/07 01:50:09;;;;;;;;;;;;;;;14.74;65.71;98523.81;1040810;28;701;-59
2022/04/07 01:50:59;;;;;;;;;;;;;;;14.74;65.68;98522.97;1040965;28;676;-59
2022/04/07 01:51:50;;;;;;;;;;;;;;;14.74;65.70;98512.25;1041458;28;665;-58
2022/04/07 01:52:43;;;;;;;;;;;;;;;14.74;65.51;98515.78;1037540;28;630;-59
2022/04/07 01:53:33;;;;;;;;;;;;;;;14.75;65.76;98512.06;1037632;28;669;-59
2022/04/07 01:54:24;;;;;;;;;;;;;;;14.76;65.51;98499.50;1040425;28;720;-59
2022/04/07 01:55:15;;;;;;;;;;;;;;;14.74;65.50;98502.38;1041496;28;672;-59
2022/04/07 01:56:05;;;;;;;;;;;;;;;14.75;65.16;98509.41;1041488;28;705;-59
2022/04/07 01:56:56;;;;;;;;;;;;;;;14.75;65.98;98498.66;1041396;28;802;-58
2022/04/07 01:57:46;;;;;;;;;;;;;;;14.76;65.89;98508.38;1041575;28;724;-58
2022/04/07 01:58:36;;;;;;;;;;;;;;;14.74;65.31;98499.69;1041422;28;717;-58
2022/04/07 01:59:27;;;;;;;;;;;;;;;14.74;65.30;98502.38;1041484;28;708;-58
2022/04/07 02:00:17;;;;;;;;;;;;;;;14.75;65.47;98498.66;1041538;28;689;-59
2022/04/07 02:01:08;;;;;;;;;;;;;;;14.74;65.79;98480.09;1041434;28;649;-59
2022/04/07 02:01:58;;;;;;;;;;;;;;;14.73;65.91;98495.34;1041452;28;669;-59
2022/04/07 02:02:49;;;;;;;;;;;;;;;14.72;65.93;98491.00;1041490;28;795;-58
2022/04/07 02:03:40;;;;;;;;;;;;;;;14.71;65.54;98489.31;1041292;28;1346;-58
2022/04/07 02:04:30;;;;;;;;;;;;;;;14.71;65.70;98492.00;1041486;28;693;-58
2022/04/07 02:05:21;;;;;;;;;;;;;;;14.73;65.70;98492.66;1041362;28;645;-59
2022/04/07 02:06:11;;;;;;;;;;;;;;;14.73;65.54;98489.13;1037664;28;728;-59
2022/04/07 02:07:02;;;;;;;;;;;;;;;14.72;66.01;98482.94;1040876;28;1791;-59
2022/04/07 02:07:52;;;;;;;;;;;;;;;14.72;65.93;98476.75;1045012;28;1183;-59
2022/04/07 02:08:42;;;;;;;;;;;;;;;14.73;65.10;98476.56;1045627;28;637;-59
2022/04/07 02:09:33;;;;;;;;;;;;;;;14.72;65.21;98472.22;1045661;28;649;-59
2022/04/07 02:10:25;;;;;;;;;;;;;;;14.71;65.46;98473.25;1044900;28;681;-59
2022/04/07 02:11:15;;;;;;;;;;;;;;;14.71;65.59;98469.72;1046064;28;677;-59
2022/04/07 02:12:06;;;;;;;;;;;;;;;14.73;65.56;98473.88;1044926;28;1579;-60
2022/04/07 02:12:57;;;;;;;;;;;;;;;14.73;65.31;98473.06;1045609;28;622;-59
2022/04/07 02:13:48;;;;;;;;;;;;;;;14.70;65.93;98463.53;1045022;28;701;-59
2022/04/07 02:14:39;;;;;;;;;;;;;;;14.69;65.79;98461.88;1045038;28;681;-59
2022/04/07 02:15:29;;;;;;;;;;;;;;;14.69;65.60;98456.50;1044933;28;614;-59
2022/04/07 02:16:22;;;;;;;;;;;;;;;14.70;65.94;98479.63;1044924;28;627;-59
2022/04/07 02:17:13;;;;;;;;;;;;;;;14.71;65.73;98469.72;1048830;28;650;-59
2022/04/07 02:18:03;;;;;;;;;;;;;;;14.70;65.80;98466.22;1048370;28;709;-60
2022/04/07 02:18:54;;;;;;;;;;;;;;;14.70;65.49;98468.88;1044370;28;642;-59
2022/04/07 02:19:44;;;;;;;;;;;;;;;14.71;65.20;98457.16;1044899;28;681;-60
2022/04/07 02:20:35;;;;;;;;;;;;;;;14.70;65.65;98468.88;1044875;28;626;-58
2022/04/07 02:21:25;;;;;;;;;;;;;;;14.68;65.77;98457.53;1044999;28;694;-58
2022/04/07 02:22:16;;;;;;;;;;;;;;;14.69;65.70;98471.78;1044856;28;1914;-59
2022/04/07 02:23:06;;;;;;;;;;;;;;;14.68;65.20;98470.13;1048915;28;696;-58
2022/04/07 02:23:56;;;;;;;;;;;;;;;14.70;65.45;98468.06;1049321;28;716;-58
2022/04/07 02:24:47;;;;;;;;;;;;;;;14.70;65.71;98465.38;1045127;28;645;-56
2022/04/07 02:25:37;;;;;;;;;;;;;;;14.70;65.55;98462.69;1045519;28;729;-59
2022/04/07 02:26:30;;;;;;;;;;;;;;;14.68;65.58;98460.22;1045308;28;1672;-58
2022/04/07 02:27:20;;;;;;;;;;;;;;;14.68;66.00;98470.13;1045540;28;673;-58
2022/04/07 02:28:12;;;;;;;;;;;;;;;14.69;65.94;98469.91;1045154;28;774;-58
2022/04/07 02:29:02;;;;;;;;;;;;;;;14.68;65.72;98481.69;1045273;28;609;-59
2022/04/07 02:29:52;;;;;;;;;;;;;;;14.68;65.67;98470.13;1045972;28;630;-58
2022/04/07 02:30:43;;;;;;;;;;;;;;;14.67;65.80;98474.66;1044883;28;676;-58
2022/04/07 02:31:33;;;;;;;;;;;;;;;14.66;65.92;98467.63;1044941;28;665;-58
2022/04/07 02:32:25;;;;;;;;;;;;;;;14.65;65.76;98471.31;1045988;28;629;-57
2022/04/07 02:33:16;;;;;;;;;;;;;;;14.66;65.55;98458.75;1045477;28;677;-58
2022/04/07 02:34:06;;;;;;;;;;;;;;;14.63;66.28;98481.38;1045988;28;646;-56
2022/04/07 02:34:57;;;;;;;;;;;;;;;14.64;65.72;98485.72;1045450;28;685;-57
2022/04/07 02:35:47;;;;;;;;;;;;;;;14.64;65.55;98458.09;1044854;28;701;-57
2022/04/07 02:36:38;;;;;;;;;;;;;;;14.62;65.79;98469.00;1044756;28;693;-58
2022/04/07 02:37:28;;;;;;;;;;;;;;;14.62;65.52;98466.31;1044850;28;745;-56
2022/04/07 02:38:18;;;;;;;;;;;;;;;14.63;65.40;98457.25;1045420;28;638;-58
2022/04/07 02:39:09;;;;;;;;;;;;;;;14.62;65.96;98466.31;1046015;28;626;-56
2022/04/07 02:39:59;;;;;;;;;;;;;;;14.62;65.47;98458.28;1045958;28;639;-58
2022/04/07 02:40:50;;;;;;;;;;;;;;;14.62;65.40;98454.75;1046037;28;605;-58
2022/04/07 02:41:40;;;;;;;;;;;;;;;14.62;65.73;98444.88;1044841;28;653;-58
2022/04/07 02:42:31;;;;;;;;;;;;;;;14.62;65.55;98431.47;1046002;28;1906;-58
2022/04/07 02:43:21;;;;;;;;;;;;;;;14.62;65.87;98449.41;1045944;28;693;-58
2022/04/07 02:44:11;;;;;;;;;;;;;;;14.60;65.33;98436.19;1044861;28;614;-59
2022/04/07 02:45:02;;;;;;;;;;;;;;;14.59;65.86;98435.34;1045886;28;688;-58
2022/04/07 02:45:52;;;;;;;;;;;;;;;14.60;65.93;98436.19;1044988;28;843;-57
2022/04/07 02:46:43;;;;;;;;;;;;;;;14.61;65.24;98439.69;1044486;28;688;-58
2022/04/07 02:47:33;;;;;;;;;;;;;;;14.61;65.28;98437.84;1040284;28;689;-58
2022/04/07 02:48:24;;;;;;;;;;;;;;;14.59;65.35;98442.56;1041068;28;677;-58
2022/04/07 02:49:14;;;;;;;;;;;;;;;14.57;65.40;98441.91;1041014;28;639;-58
2022/04/07 02:50:05;;;;;;;;;;;;;;;14.57;65.73;98437.38;1040289;28;685;-57
2022/04/07 02:50:55;;;;;;;;;;;;;;;14.58;65.58;98435.53;1044145;28;1192;-58
2022/04/07 02:51:46;;;;;;;;;;;;;;;14.58;65.54;98438.22;1044768;28;602;-58
2022/04/07 02:52:36;;;;;;;;;;;;;;;14.59;65.67;98426.47;1045091;28;673;-58
2022/04/07 02:53:26;;;;;;;;;;;;;;;14.57;65.21;98432.00;1045108;28;657;-58
2022/04/07 02:54:17;;;;;;;;;;;;;;;14.57;65.59;98436.53;1044294;28;687;-59
2022/04/07 02:55:08;;;;;;;;;;;;;;;14.56;65.33;98414.25;1044782;28;618;-56
2022/04/07 02:55:59;;;;;;;;;;;;;;;14.57;65.50;98425.81;1044818;28;630;-59
2022/04/07 02:56:49;;;;;;;;;;;;;;;14.56;65.65;98426.84;1044844;28;628;-57
2022/04/07 02:57:41;;;;;;;;;;;;;;;14.56;65.18;98416.13;1044759;28;614;-57
2022/04/07 02:58:31;;;;;;;;;;;;;;;14.55;65.31;98411.75;1044807;28;658;-57
2022/04/07 02:59:22;;;;;;;;;;;;;;;14.54;65.73;98423.50;1044740;28;677;-58
2022/04/07 03:00:13;;;;;;;;;;;;;;;14.56;65.55;98424.16;1044875;28;666;-58
2022/04/07 03:01:03;;;;;;;;;;;;;;;14.56;65.54;98413.44;1044780;28;739;-57
2022/04/07 03:01:56;;;;;;;;;;;;;;;14.55;65.33;98422.50;1044797;28;657;-57
2022/04/07 03:02:46;;;;;;;;;;;;;;;14.54;65.08;98410.94;1044751;28;677;-58
2022/04/07 03:03:37;;;;;;;;;;;;;;;14.52;65.89;98407.59;1044595;28;1115;-57
2022/04/07 03:04:27;;;;;;;;;;;;;;;14.54;65.29;98415.47;1044879;28;665;-58
2022/04/07 03:05:17;;;;;;;;;;;;;;;14.55;65.18;98414.44;1044963;28;678;-58
2022/04/07 03:06:08;;;;;;;;;;;;;;;14.55;65.72;98414.44;1044416;28;1730;-58
2022/04/07 03:06:58;;;;;;;;;;;;;;;14.53;65.90;98416.47;1048782;28;682;-58
2022/04/07 03:07:49;;;;;;;;;;;;;;;14.54;65.45;98396.69;1049038;28;822;-58
2022/04/07 03:08:40;;;;;;;;;;;;;;;14.55;65.48;98419.81;1045613;28;669;-59
2022/04/07 03:09:30;;;;;;;;;;;;;;;14.55;65.06;98401.03;1044704;28;618;-59
2022/04/07 03:10:21;;;;;;;;;;;;;;;14.53;65.34;98395.03;1045376;28;672;-59
2022/04/07 03:11:13;;;;;;;;;;;;;;;14.52;65.50;98386.16;1044768;28;701;-58
2022/04/07 03:12:03;;;;;;;;;;;;;;;14.53;65.63;98387.81;1044728;28;712;-58
2022/04/07 03:12:54;;;;;;;;;;;;;;;14.53;65.57;98384.31;1044709;28;617;-61
2022/04/07 03:13:44;;;;;;;;;;;;;;;14.53;65.04;98377.09;1045238;28;626;-59
2022/04/07 03:14:35;;;;;;;;;;;;;;;14.53;65.40;98385.16;1045343;28;658;-59
2022/04/07 03:15:25;;;;;;;;;;;;;;;14.52;65.03;98388.00;1049197;28;641;-59
2022/04/07 03:16:15;;;;;;;;;;;;;;;14.52;64.93;98385.34;1049165;28;633;-59
2022/04/07 03:17:06;;;;;;;;;;;;;;;14.51;65.64;98368.41;1044237;28;605;-58
2022/04/07 03:17:56;;;;;;;;;;;;;;;14.54;65.15;98372.59;1044177;28;682;-59
2022/04/07 03:18:47;;;;;;;;;;;;;;;14.52;65.15;98375.44;1044098;28;639;-57
2022/04/07 03:19:37;;;;;;;;;;;;;;;14.53;65.12;98370.91;1044763;28;704;-58
2022/04/07 03:20:28;;;;;;;;;;;;;;;14.52;65.80;98372.75;1044148;28;694;-58
2022/04/07 03:21:18;;;;;;;;;;;;;;;14.51;65.20;98365.75;1044491;28;669;-58
2022/04/07 03:22:09;;;;;;;;;;;;;;;14.50;65.59;98360.59;1044990;28;634;-58
2022/04/07 03:22:59;;;;;;;;;;;;;;;14.52;65.78;98363.88;1045287;28;646;-58
2022/04/07 03:23:49;;;;;;;;;;;;;;;14.52;65.41;98358.53;1045257;28;774;-58
2022/04/07 03:24:40;;;;;;;;;;;;;;;14.52;64.90;98367.41;1045196;28;622;-58
2022/04/07 03:25:30;;;;;;;;;;;;;;;14.52;65.29;98353.16;1045224;28;1756;-58
2022/04/07 03:26:21;;;;;;;;;;;;;;;14.51;65.66;98346.19;1045832;28;658;-59
2022/04/07 03:27:11;;;;;;;;;;;;;;;14.51;65.61;98352.34;1045820;28;846;-58
2022/04/07 03:28:01;;;;;;;;;;;;;;;14.52;65.53;98356.69;1045820;28;669;-58
2022/04/07 03:28:52;;;;;;;;;;;;;;;14.50;65.37;98341.84;1044723;28;619;-59
2022/04/07 03:29:42;;;;;;;;;;;;;;;14.50;65.17;98339.16;1044997;28;677;-58
2022/04/07 03:30:33;;;;;;;;;;;;;;;14.49;65.15;98343.69;1045629;28;697;-58
2022/04/07 03:31:23;;;;;;;;;;;;;;;14.49;65.15;98327.59;1045798;28;714;-57
2022/04/07 03:32:14;;;;;;;;;;;;;;;14.49;65.30;98334.81;1044870;28;692;-58
2022/04/07 03:33:06;;;;;;;;;;;;;;;14.48;65.47;98325.94;1044450;28;624;-57
2022/04/07 03:33:56;;;;;;;;;;;;;;;14.49;65.31;98332.13;1044459;28;1672;-58
2022/04/07 03:34:46;;;;;;;;;;;;;;;14.50;65.56;98333.78;1044689;28;656;-57
2022/04/07 03:35:37;;;;;;;;;;;;;;;14.50;64.80;98328.44;1044163;28;670;-59
2022/04/07 03:36:27;;;;;;;;;;;;;;;14.49;65.03;98321.41;1044469;28;1521;-59
2022/04/07 03:37:18;;;;;;;;;;;;;;;14.50;65.01;98320.41;1045893;28;657;-58
2022/04/07 03:38:09;;;;;;;;;;;;;;;14.47;64.98;98315.41;1045874;28;723;-59
2022/04/07 03:38:59;;;;;;;;;;;;;;;14.47;65.05;98313.56;1044029;28;602;-59
2022/04/07 03:39:50;;;;;;;;;;;;;;;14.48;64.73;98309.84;1045781;28;650;-59
2022/04/07 03:40:40;;;;;;;;;;;;;;;14.47;65.07;98312.72;1045833;28;696;-59
2022/04/07 03:41:30;;;;;;;;;;;;;;;14.46;65.58;98311.88;1045836;28;709;-58
2022/04/07 03:42:21;;;;;;;;;;;;;;;14.47;65.03;98302.00;1045827;28;1959;-58
2022/04/07 03:43:11;;;;;;;;;;;;;;;14.47;65.06;98288.59;1044861;28;733;-58
2022/04/07 03:44:03;;;;;;;;;;;;;;;14.45;64.97;98296.84;1045685;28;731;-58
2022/04/07 03:44:53;;;;;;;;;;;;;;;14.45;64.85;98288.78;1045771;28;772;-58
2022/04/07 03:45:44;;;;;;;;;;;;;;;14.45;65.44;98280.75;1044674;28;1662;-59
2022/04/07 03:46:34;;;;;;;;;;;;;;;14.44;65.41;98279.09;1045864;28;707;-58
2022/04/07 03:47:25;;;;;;;;;;;;;;;14.45;65.28;98280.75;1045715;28;638;-58
2022/04/07 03:48:15;;;;;;;;;;;;;;;14.46;65.51;98268.19;1044634;28;689;-58
2022/04/07 03:49:05;;;;;;;;;;;;;;;14.45;64.98;98270.03;1045807;28;681;-58
2022/04/07 03:49:56;;;;;;;;;;;;;;;14.44;65.13;98275.56;1044592;28;607;-58
2022/04/07 03:50:46;;;;;;;;;;;;;;;14.44;65.21;98262.19;1045724;28;1199;-58
2022/04/07 03:51:37;;;;;;;;;;;;;;;14.44;65.14;98264.84;1043890;28;673;-58
2022/04/07 03:52:27;;;;;;;;;;;;;;;14.43;65.11;98258.66;1044744;28;751;-58
2022/04/07 03:53:17;;;;;;;;;;;;;;;14.44;64.95;98259.50;1044613;28;709;-58
2022/04/07 03:54:08;;;;;;;;;;;;;;;14.44;65.18;98254.13;1044644;28;673;-58
2022/04/07 03:54:58;;;;;;;;;;;;;;;14.43;65.55;98257.84;1044711;28;662;-58
2022/04/07 03:55:49;;;;;;;;;;;;;;;14.43;65.54;98247.13;1044592;28;673;-58
2022/04/07 03:56:39;;;;;;;;;;;;;;;14.41;64.97;98238.44;1044704;28;668;-58
2022/04/07 03:57:30;;;;;;;;;;;;;;;14.43;65.42;98252.47;1044567;28;747;-58
2022/04/07 03:58:20;;;;;;;;;;;;;;;14.42;64.97;98238.25;1044667;28;685;-56
2022/04/07 03:59:10;;;;;;;;;;;;;;;14.43;65.48;98239.91;1044824;28;622;-58
2022/04/07 04:00:01;;;;;;;;;;;;;;;14.42;65.48;98229.38;1044050;28;611;-57
2022/04/07 04:00:52;;;;;;;;;;;;;;;14.40;65.50;98231.38;1044535;28;662;-58
2022/04/07 04:01:44;;;;;;;;;;;;;;;14.40;65.40;98220.66;1044143;28;715;-57
2022/04/07 04:02:34;;;;;;;;;;;;;;;14.41;64.87;98217.00;1044349;28;1874;-57
2022/04/07 04:03:25;;;;;;;;;;;;;;;14.40;65.39;98210.81;1044977;28;730;-58
2022/04/07 04:04:17;;;;;;;;;;;;;;;14.42;65.19;98210.63;1044661;28;764;-57
2022/04/07 04:05:07;;;;;;;;;;;;;;;14.41;65.27;98201.75;1044744;28;653;-58
2022/04/07 04:05:58;;;;;;;;;;;;;;;14.41;64.93;98195.56;1044539;28;657;-57
2022/04/07 04:06:48;;;;;;;;;;;;;;;14.41;64.97;98195.56;1044717;28;718;-57
2022/04/07 04:07:39;;;;;;;;;;;;;;;14.39;65.36;98193.03;1044669;28;685;-57
2022/04/07 04:08:29;;;;;;;;;;;;;;;14.41;64.98;98179.47;1044760;28;681;-58
2022/04/07 04:09:20;;;;;;;;;;;;;;;14.40;64.65;98188.50;1044587;28;642;-57
2022/04/07 04:10:10;;;;;;;;;;;;;;;14.40;65.13;98175.97;1044534;28;622;-58
2022/04/07 04:11:01;;;;;;;;;;;;;;;14.40;65.31;98164.41;1044724;28;630;-58
2022/04/07 04:11:52;;;;;;;;;;;;;;;14.38;65.70;98164.59;1044643;28;622;-57
2022/04/07 04:12:43;;;;;;;;;;;;;;;14.37;65.33;98162.09;1044233;28;630;-57
2022/04/07 04:13:33;;;;;;;;;;;;;;;14.38;65.14;98161.06;1045016;28;630;-58
2022/04/07 04:14:24;;;;;;;;;;;;;;;14.38;65.56;98158.41;1044503;28;767;-58
2022/04/07 04:15:14;;;;;;;;;;;;;;;14.39;65.37;98170.78;1044600;28;654;-58
2022/04/07 04:16:04;;;;;;;;;;;;;;;14.39;65.05;98155.53;1045263;28;831;-56
2022/04/07 04:16:55;;;;;;;;;;;;;;;14.39;65.49;98166.25;1045845;28;614;-58
2022/04/07 04:17:45;;;;;;;;;;;;;;;14.39;64.91;98160.88;1045717;28;669;-57
2022/04/07 04:18:36;;;;;;;;;;;;;;;14.38;64.95;98156.53;1045784;28;692;-56
2022/04/07 04:19:26;;;;;;;;;;;;;;;14.38;65.08;98155.72;1044118;28;635;-57
2022/04/07 04:20:16;;;;;;;;;;;;;;;14.38;65.45;98147.69;1045699;28;688;-58
2022/04/07 04:21:07;;;;;;;;;;;;;;;14.37;65.03;98156.72;1045784;28;626;-58
2022/04/07 04:21:57;;;;;;;;;;;;;;;14.38;65.50;98148.50;1044658;28;677;-57
2022/04/07 04:22:48;;;;;;;;;;;;;;;14.39;65.00;98146.66;1045745;28;697;-58
2022/04/07 04:23:40;;;;;;;;;;;;;;;14.38;64.96;98153.88;1045873;28;681;-58
2022/04/07 04:24:30;;;;;;;;;;;;;;;14.38;64.62;98147.69;1045139;28;598;-59
2022/04/07 04:25:21;;;;;;;;;;;;;;;14.38;64.85;98137.78;1045765;28;637;-59
2022/04/07 04:26:11;;;;;;;;;;;;;;;14.38;65.28;98135.13;1044657;28;689;-59
2022/04/07 04:27:02;;;;;;;;;;;;;;;14.34;65.07;98141.88;1045729;28;634;-59
2022/04/07 04:27:53;;;;;;;;;;;;;;;14.33;65.09;98116.09;1045151;28;689;-59
2022/04/07 04:28:43;;;;;;;;;;;;;;;14.35;65.26;98115.91;1044552;28;666;-59
2022/04/07 04:29:34;;;;;;;;;;;;;;;14.38;64.73;98127.06;1045707;28;716;-59